Maple Opal — VRIM2 — position and weather

sailwx.info

Track history (hours):
 
Tides and Currents Weather Stations Pressure Air Temp Water Temp Dewpoint Dewpoint Depression Visibility Wind Speed Wind Dir Waves Ship Positions

Maple Opal

Last reported at 2017-Aug-20 16:08 UTC. Time now 2017-Sep-23 16:40 UTC.
Position N 27°10' W 015°24'.
Warning: this ship's position is 34 days out of date.

Length 190 m; draft 9.6 m.

Type: Cargo ship. MMSI: 477213600.

Date/timePositionNaut miles runAvg speedWind from/ knotsBaromVisibWave heightAir tempDewpointWater temp
2017-Aug-20 16:08N 27°10' W 015°24'212.7
2017-Aug-20 15:59N 27°12' W 015°23'1412.5
2017-Aug-20 14:53N 27°25' W 015°18'712.3
2017-Aug-20 14:18N 27°31' W 015°15'412.1
2017-Aug-20 14:00N 27°35' W 015°13'711.5
2017-Aug-20 13:24N 27°41' W 015°11'511.7
2017-Aug-20 12:59N 27°46' W 015°09'612.1
2017-Aug-20 12:29N 27°52' W 015°07'611.8
2017-Aug-20 12:00N 27°57' W 015°05'611.6
2017-Aug-20 11:30N 28°03' W 015°03'611.6
2017-Aug-20 11:00N 28°08' W 015°00'611.4
2017-Aug-20 10:30N 28°13' W 014°58'611.6
2017-Aug-20 10:00N 28°19' W 014°56'611.5
2017-Aug-20 09:30N 28°24' W 014°53'612.2
2017-Aug-20 09:00N 28°29' W 014°49'612.1
2017-Aug-20 08:30N 28°35' W 014°46'612.1
2017-Aug-20 08:00N 28°40' W 014°43'712.2
2017-Aug-20 07:26N 28°46' W 014°40'512.2
2017-Aug-20 07:00N 28°51' W 014°37'612.3
2017-Aug-20 06:30N 28°56' W 014°33'612.2
2017-Aug-20 06:00N 29°01' W 014°30'612.2
2017-Aug-20 05:30N 29°07' W 014°27'612.1
2017-Aug-20 05:00N 29°12' W 014°24'612.2
2017-Aug-20 04:30N 29°18' W 014°21'612.2
2017-Aug-20 04:00N 29°23' W 014°17'612.1
2017-Aug-20 03:30N 29°28' W 014°14'612.1
2017-Aug-20 03:00N 29°34' W 014°11'612.1
2017-Aug-20 02:30N 29°39' W 014°07'712.2
2017-Aug-20 01:58N 29°45' W 014°04'612.3
2017-Aug-20 01:30N 29°50' W 014°01'612.4
2017-Aug-20 01:00N 29°56' W 013°58'612.3
2017-Aug-20 00:30N 30°01' W 013°55'712.0
2017-Aug-19 23:54N 30°08' W 013°51'511.8
2017-Aug-19 23:30N 30°12' W 013°49'611.7
2017-Aug-19 23:00N 30°17' W 013°46'611.7
2017-Aug-19 22:30N 30°23' W 013°44'1011.9
2017-Aug-19 21:42N 30°31' W 013°39'512.1
2017-Aug-19 21:17N 30°36' W 013°37'412.0
2017-Aug-19 20:59N 30°40' W 013°35'612.0
2017-Aug-19 20:30N 30°45' W 013°33'712.0
2017-Aug-19 19:56N 30°51' W 013°29'512.0
2017-Aug-19 19:29N 30°56' W 013°27'611.8
2017-Aug-19 19:00N 31°01' W 013°24'812.0
2017-Aug-19 18:20N 31°09' W 013°21'912.1
2017-Aug-19 17:36N 31°17' W 013°16'112.0
2017-Aug-19 17:30N 31°18' W 013°16'612.1
2017-Aug-19 17:00N 31°23' W 013°13'612.2
2017-Aug-19 16:30N 31°29' W 013°10'612.1
2017-Aug-19 16:00N 31°34' W 013°07'611.8
2017-Aug-19 15:30N 31°40' W 013°04'611.7
2017-Aug-19 15:00N 31°45' W 013°02'1111.5
2017-Aug-19 14:00N 31°56' W 012°57'611.7
2017-Aug-19 13:28N 32°01' W 012°54'611.7
2017-Aug-19 12:59N 32°07' W 012°51'711.3
2017-Aug-19 12:23N 32°13' W 012°48'811.1
2017-Aug-19 11:42N 32°20' W 012°44'2411.5
2017-Aug-19 09:34N 32°42' W 012°33'111.4
2017-Aug-19 09:30N 32°43' W 012°32'611.4
2017-Aug-19 09:00N 32°48' W 012°29'611.5
2017-Aug-19 08:30N 32°53' W 012°27'3011.6
2017-Aug-19 05:57N 33°21' W 012°12'1611.8
2017-Aug-19 04:35N 33°35' W 012°05'211.7
2017-Aug-19 04:22N 33°37' W 012°04'2011.8
2017-Aug-19 02:40N 33°56' W 011°54'3711.9
2017-Aug-18 23:35N 34°30' W 011°37'111.8
2017-Aug-18 23:30N 34°31' W 011°36'612.0
2017-Aug-18 22:59N 34°36' W 011°33'612.1
2017-Aug-18 22:30N 34°42' W 011°30'612.0
2017-Aug-18 22:00N 34°47' W 011°27'612.0
2017-Aug-18 21:29N 34°53' W 011°24'611.9
2017-Aug-18 21:00N 34°58' W 011°22'611.9
2017-Aug-18 20:30N 35°04' W 011°19'3211.9
2017-Aug-18 17:47N 35°33' W 011°02'312.0
2017-Aug-18 17:30N 35°36' W 011°01'812.0
2017-Aug-18 16:52N 35°43' W 010°57'412.0
2017-Aug-18 16:30N 35°47' W 010°55'9811.9
2017-Aug-18 08:16N 37°17' W 010°07'312.0
2017-Aug-18 08:00N 37°20' W 010°05'612.0
2017-Aug-18 07:29N 37°25' W 010°02'611.8
2017-Aug-18 06:59N 37°31' W 009°59'612.0
2017-Aug-18 06:30N 37°36' W 009°56'611.8
2017-Aug-18 05:57N 37°42' W 009°53'511.7
2017-Aug-18 05:30N 37°47' W 009°51'612.1
2017-Aug-18 05:00N 37°52' W 009°47'612.2
2017-Aug-18 04:30N 37°58' W 009°44'612.2
2017-Aug-18 04:00N 38°04' W 009°42'612.1
2017-Aug-18 03:30N 38°09' W 009°38'612.2
2017-Aug-18 03:00N 38°15' W 009°35'612.1
2017-Aug-18 02:30N 38°20' W 009°32'611.6
2017-Aug-18 02:00N 38°26' W 009°29'611.3
2017-Aug-18 01:30N 38°31' W 009°27'510.4
2017-Aug-18 01:00N 38°36' W 009°24'5 9.1
2017-Aug-18 00:30N 38°39' W 009°20'510.2
2017-Aug-18 00:00N 38°41' W 009°14'510.1
2017-Aug-17 23:30N 38°42' W 009°08'1 2.3
2017-Aug-17 23:00N 38°42' W 009°06'0 0.1
2017-Aug-17 22:30N 38°42' W 009°06'0 0.0
2017-Aug-17 21:57N 38°42' W 009°06'0 0.0
2017-Aug-17 21:24N 38°42' W 009°06'0 0.0
2017-Aug-17 21:00N 38°42' W 009°06'0 0.1
2017-Aug-17 20:27N 38°42' W 009°06'0 0.0
2017-Aug-17 20:00N 38°42' W 009°06'0 0.1
2017-Aug-17 19:30N 38°42' W 009°06'0 0.1
2017-Aug-17 18:57N 38°42' W 009°06'0 0.1
2017-Aug-17 18:27N 38°42' W 009°06'0 0.1
2017-Aug-17 17:54N 38°42' W 009°06'0 0.1
2017-Aug-17 17:27N 38°42' W 009°06'0 0.2
2017-Aug-17 17:00N 38°42' W 009°07'0 0.1
2017-Aug-17 16:24N 38°42' W 009°07'0 0.1
2017-Aug-17 15:54N 38°42' W 009°07'0 0.0
2017-Aug-17 15:31N 38°42' W 009°07'0 0.0
2017-Aug-17 15:01N 38°42' W 009°07'0 0.0
2017-Aug-17 14:31N 38°42' W 009°07'0 0.0
2017-Aug-17 14:00N 38°42' W 009°07'0 0.0
2017-Aug-17 13:30N 38°42' W 009°07'0 0.0
2017-Aug-17 13:00N 38°42' W 009°07'0 0.1
2017-Aug-17 12:30N 38°42' W 009°07'0 0.2
2017-Aug-17 12:01N 38°42' W 009°06'0 0.3
2017-Aug-17 11:30N 38°42' W 009°06'0 0.1
2017-Aug-17 11:01N 38°42' W 009°06'0 0.0
2017-Aug-17 10:30N 38°42' W 009°06'0 0.0
2017-Aug-17 10:00N 38°42' W 009°06'0 0.0
2017-Aug-17 09:30N 38°42' W 009°06'0 0.0
2017-Aug-17 09:01N 38°42' W 009°06'0 0.0
2017-Aug-17 08:30N 38°42' W 009°06'0 0.1
2017-Aug-17 08:01N 38°42' W 009°06'0 0.1
2017-Aug-17 07:30N 38°42' W 009°06'0 0.0
2017-Aug-17 07:00N 38°42' W 009°06'0 0.2
2017-Aug-17 06:30N 38°42' W 009°06'0 0.2
2017-Aug-17 06:00N 38°42' W 009°06'0 0.2
2017-Aug-17 05:30N 38°42' W 009°07'0 0.1
2017-Aug-17 05:01N 38°42' W 009°07'0 0.0
2017-Aug-17 04:30N 38°42' W 009°07'0 0.0
2017-Aug-17 04:00N 38°42' W 009°07'0 0.0
2017-Aug-17 03:30N 38°42' W 009°07'0 0.1
2017-Aug-17 03:00N 38°42' W 009°07'0 0.0
2017-Aug-17 02:30N 38°42' W 009°07'0 0.0
2017-Aug-17 02:00N 38°42' W 009°07'0 0.0
2017-Aug-17 01:31N 38°42' W 009°07'0 0.0
2017-Aug-17 01:00N 38°42' W 009°07'0 0.0
2017-Aug-17 00:31N 38°42' W 009°07'0 0.1
2017-Aug-17 00:01N 38°42' W 009°07'0 0.0
2017-Aug-16 23:31N 38°42' W 009°06'0 0.2
2017-Aug-16 23:00N 38°42' W 009°06'0 0.0
2017-Aug-16 22:31N 38°42' W 009°06'0 0.2
2017-Aug-16 22:00N 38°42' W 009°06'0 0.1
2017-Aug-16 21:31N 38°42' W 009°06'0 0.0
2017-Aug-16 21:01N 38°42' W 009°06'0 0.0
2017-Aug-16 20:31N 38°42' W 009°06'0 0.0
2017-Aug-16 20:00N 38°42' W 009°06'0 0.0
2017-Aug-16 19:31N 38°42' W 009°06'0 0.0
2017-Aug-16 19:01N 38°42' W 009°06'0 0.0
2017-Aug-16 18:30N 38°42' W 009°06'0 0.1
2017-Aug-16 18:00N 38°42' W 009°06'0 0.1
2017-Aug-16 17:30N 38°42' W 009°06'0 0.2
2017-Aug-16 17:00N 38°42' W 009°06'0 0.1
2017-Aug-16 16:31N 38°42' W 009°06'0 0.0
2017-Aug-16 16:01N 38°42' W 009°06'0 0.1
2017-Aug-16 15:31N 38°42' W 009°07'0 0.0
2017-Aug-16 15:01N 38°42' W 009°07'0 0.1
2017-Aug-16 14:31N 38°42' W 009°07'0 0.0
2017-Aug-16 14:01N 38°42' W 009°07'0 0.0
2017-Aug-16 13:31N 38°42' W 009°07'0 0.0
2017-Aug-16 13:00N 38°42' W 009°07'0 0.1
2017-Aug-16 12:30N 38°42' W 009°07'0 0.0
2017-Aug-16 12:00N 38°42' W 009°07'0 0.1
2017-Aug-16 11:30N 38°42' W 009°07'0 0.1
2017-Aug-16 11:00N 38°42' W 009°06'0 0.2
2017-Aug-16 10:30N 38°42' W 009°06'0 0.1
2017-Aug-16 10:00N 38°42' W 009°06'0 0.2
2017-Aug-16 09:30N 38°42' W 009°06'0 0.1
2017-Aug-16 09:01N 38°42' W 009°06'0 0.1
2017-Aug-16 08:31N 38°42' W 009°06'0 0.1
2017-Aug-16 08:01N 38°42' W 009°06'0 0.1
2017-Aug-16 07:30N 38°42' W 009°06'0 0.0
2017-Aug-16 07:00N 38°42' W 009°06'0 0.1
2017-Aug-16 06:31N 38°42' W 009°06'0 0.0
2017-Aug-16 06:00N 38°42' W 009°06'0 0.0
2017-Aug-16 05:31N 38°42' W 009°06'0 0.1
2017-Aug-16 05:00N 38°42' W 009°06'0 0.2
2017-Aug-16 04:30N 38°42' W 009°06'0 0.2
2017-Aug-16 04:00N 38°42' W 009°06'0 0.0
2017-Aug-16 03:31N 38°42' W 009°06'0 0.0
2017-Aug-16 03:00N 38°42' W 009°06'0 0.0
2017-Aug-16 02:30N 38°42' W 009°06'0 0.1
2017-Aug-16 02:00N 38°42' W 009°07'0 0.0
2017-Aug-16 01:30N 38°42' W 009°07'0 0.0
2017-Aug-16 01:01N 38°42' W 009°07'0 0.0
2017-Aug-16 00:31N 38°42' W 009°07'0 0.0
2017-Aug-16 00:00N 38°42' W 009°07'0 0.0
2017-Aug-15 23:30N 38°42' W 009°07'0 0.0
2017-Aug-15 23:00N 38°42' W 009°07'0 0.1
2017-Aug-15 22:30N 38°42' W 009°06'0 0.1
2017-Aug-15 22:00N 38°42' W 009°06'0 0.1
2017-Aug-15 21:31N 38°42' W 009°06'0 0.1
2017-Aug-15 20:59N 38°42' W 009°06'0 0.1
2017-Aug-15 20:31N 38°42' W 009°06'0 0.1
2017-Aug-15 20:00N 38°42' W 009°06'0 0.0
2017-Aug-15 19:31N 38°42' W 009°06'0 0.0
2017-Aug-15 19:00N 38°42' W 009°06'0 0.0
2017-Aug-15 18:30N 38°42' W 009°06'0 0.0
2017-Aug-15 18:00N 38°42' W 009°06'0 0.0
2017-Aug-15 17:31N 38°42' W 009°06'0 0.0
2017-Aug-15 17:01N 38°42' W 009°06'0 0.0
2017-Aug-15 16:31N 38°42' W 009°06'0 0.1
2017-Aug-15 16:01N 38°42' W 009°06'0 0.2
2017-Aug-15 15:30N 38°42' W 009°06'0 0.0
2017-Aug-15 15:00N 38°42' W 009°06'0 0.0
2017-Aug-15 14:31N 38°42' W 009°06'0 0.1
2017-Aug-15 14:01N 38°42' W 009°07'0 0.0
2017-Aug-15 13:31N 38°42' W 009°07'0 0.0
2017-Aug-15 13:01N 38°42' W 009°07'0 0.0
2017-Aug-15 12:30N 38°42' W 009°07'0 0.0
2017-Aug-15 12:01N 38°42' W 009°07'0 0.0
2017-Aug-15 11:30N 38°42' W 009°07'0 0.0
2017-Aug-15 11:01N 38°42' W 009°07'0 0.0
2017-Aug-15 10:31N 38°42' W 009°07'0 0.0
2017-Aug-15 10:01N 38°42' W 009°07'0 0.1
2017-Aug-15 09:30N 38°42' W 009°07'0 0.2
2017-Aug-15 09:01N 38°42' W 009°06'0 0.2
2017-Aug-15 08:30N 38°42' W 009°06'0 0.0
2017-Aug-15 08:01N 38°42' W 009°06'0 0.0
2017-Aug-15 07:30N 38°42' W 009°06'0 0.0
2017-Aug-15 07:01N 38°42' W 009°06'0 0.0
2017-Aug-15 06:30N 38°42' W 009°06'0 0.0
2017-Aug-15 06:00N 38°42' W 009°06'0 0.0
2017-Aug-15 05:30N 38°42' W 009°06'0 0.0
2017-Aug-15 05:01N 38°42' W 009°06'0 0.0
2017-Aug-15 04:31N 38°42' W 009°06'0 0.0
2017-Aug-15 04:00N 38°42' W 009°06'0 0.2
2017-Aug-15 03:30N 38°42' W 009°06'0 0.2
2017-Aug-15 03:01N 38°42' W 009°06'0 0.0
2017-Aug-15 02:30N 38°42' W 009°06'0 0.1
2017-Aug-15 02:01N 38°42' W 009°07'0 0.0
2017-Aug-15 01:30N 38°42' W 009°07'0 0.0
2017-Aug-15 01:00N 38°42' W 009°07'0 0.0
2017-Aug-15 00:30N 38°42' W 009°07'0 0.0
2017-Aug-15 00:00N 38°42' W 009°07'0 0.0
2017-Aug-14 23:30N 38°42' W 009°07'0 0.0
2017-Aug-14 23:01N 38°42' W 009°07'0 0.0
2017-Aug-14 22:30N 38°42' W 009°07'0 0.0
2017-Aug-14 22:01N 38°42' W 009°07'0 0.1
2017-Aug-14 21:31N 38°42' W 009°06'0 0.1
2017-Aug-14 21:01N 38°42' W 009°06'0 0.1
2017-Aug-14 20:31N 38°42' W 009°06'0 0.2
2017-Aug-14 20:00N 38°42' W 009°06'0 0.1
2017-Aug-14 19:30N 38°42' W 009°06'0 0.0
2017-Aug-14 19:00N 38°42' W 009°06'0 0.1
2017-Aug-14 18:30N 38°42' W 009°06'0 0.0
2017-Aug-14 18:00N 38°42' W 009°06'0 0.1
2017-Aug-14 17:31N 38°42' W 009°06'0 0.1
2017-Aug-14 17:01N 38°42' W 009°06'0 0.1
2017-Aug-14 16:30N 38°42' W 009°06'0 0.1
2017-Aug-14 16:01N 38°42' W 009°06'0 0.1
2017-Aug-14 15:30N 38°42' W 009°06'0 0.4
2017-Aug-14 15:01N 38°42' W 009°06'0 0.1
2017-Aug-14 14:31N 38°42' W 009°07'0 0.0
2017-Aug-14 14:00N 38°42' W 009°07'0 0.0
2017-Aug-14 13:30N 38°42' W 009°07'0 0.0
2017-Aug-14 13:00N 38°42' W 009°07'0 0.0
2017-Aug-14 12:30N 38°42' W 009°07'0 0.0
2017-Aug-14 12:01N 38°42' W 009°07'0 0.0
2017-Aug-14 11:31N 38°42' W 009°07'0 0.0
2017-Aug-14 11:00N 38°42' W 009°07'0 0.0
2017-Aug-14 10:31N 38°42' W 009°07'0 0.0
2017-Aug-14 10:01N 38°42' W 009°07'0 0.0
2017-Aug-14 09:31N 38°42' W 009°07'0 0.0
2017-Aug-14 09:00N 38°42' W 009°07'0 0.3
2017-Aug-14 08:31N 38°42' W 009°06'0 0.2
2017-Aug-14 08:00N 38°42' W 009°06'0 0.0
2017-Aug-14 07:31N 38°42' W 009°06'0 0.1
2017-Aug-14 07:01N 38°42' W 009°06'0 0.0
2017-Aug-14 06:31N 38°42' W 009°06'0 0.0
2017-Aug-14 06:01N 38°42' W 009°06'0 0.0
2017-Aug-14 05:30N 38°42' W 009°06'0 0.0
2017-Aug-14 05:00N 38°42' W 009°06'0 0.0
2017-Aug-14 04:30N 38°42' W 009°06'0 0.0
2017-Aug-14 04:00N 38°42' W 009°06'0 0.0
2017-Aug-14 03:31N 38°42' W 009°06'0 0.1
2017-Aug-14 03:00N 38°42' W 009°06'0 0.2
2017-Aug-14 02:30N 38°42' W 009°06'0 0.2
2017-Aug-14 02:00N 38°42' W 009°06'0 0.1
2017-Aug-14 01:30N 38°42' W 009°07'0 0.0
2017-Aug-14 01:00N 38°42' W 009°07'0 0.1
2017-Aug-14 00:30N 38°42' W 009°07'0 0.0
2017-Aug-14 00:00N 38°42' W 009°07'0 0.0
2017-Aug-13 23:31N 38°42' W 009°07'0 0.0
2017-Aug-13 23:01N 38°42' W 009°07'0 0.0
2017-Aug-13 22:31N 38°42' W 009°07'0 0.0
2017-Aug-13 22:00N 38°42' W 009°07'0 0.0
2017-Aug-13 21:30N 38°42' W 009°07'0 0.0
2017-Aug-13 21:00N 38°42' W 009°07'0 0.0
2017-Aug-13 20:31N 38°42' W 009°07'0 0.2
2017-Aug-13 20:01N 38°42' W 009°07'0 0.4
2017-Aug-13 19:30N 38°42' W 009°06'0 0.2
2017-Aug-13 19:00N 38°42' W 009°06'0 0.0
2017-Aug-13 18:30N 38°42' W 009°06'0 0.0
2017-Aug-13 18:00N 38°42' W 009°06'0 0.0
2017-Aug-13 17:30N 38°42' W 009°06'0 0.0
2017-Aug-13 17:00N 38°42' W 009°06'0 0.0
2017-Aug-13 16:30N 38°42' W 009°06'0 0.0
2017-Aug-13 16:00N 38°42' W 009°06'0 0.0
2017-Aug-13 15:30N 38°42' W 009°06'0 0.0
2017-Aug-13 15:01N 38°42' W 009°06'0 0.0
2017-Aug-13 14:30N 38°42' W 009°06'0 0.1
2017-Aug-13 14:01N 38°42' W 009°06'0 0.2
2017-Aug-13 13:31N 38°42' W 009°06'0 0.2
2017-Aug-13 13:00N 38°42' W 009°06'0 0.1
2017-Aug-13 12:30N 38°42' W 009°07'0 0.1
2017-Aug-13 12:00N 38°42' W 009°07'0 0.0
2017-Aug-13 11:31N 38°42' W 009°07'0 0.0
2017-Aug-13 11:00N 38°42' W 009°07'0 0.0
2017-Aug-13 10:30N 38°42' W 009°07'0 0.0
2017-Aug-13 10:00N 38°42' W 009°07'0 0.0
2017-Aug-13 09:30N 38°42' W 009°07'0 0.0
2017-Aug-13 09:00N 38°42' W 009°07'0 0.0
2017-Aug-13 08:30N 38°42' W 009°07'0 0.1
2017-Aug-13 08:00N 38°42' W 009°07'0 0.4
2017-Aug-13 07:31N 38°42' W 009°06'0 0.2
2017-Aug-13 07:01N 38°42' W 009°06'0 0.1
2017-Aug-13 06:31N 38°42' W 009°06'0 0.0
2017-Aug-13 06:00N 38°42' W 009°06'0 0.0
2017-Aug-13 05:30N 38°42' W 009°06'0 0.0
2017-Aug-13 05:00N 38°42' W 009°06'0 0.0
2017-Aug-13 04:31N 38°42' W 009°06'0 0.0
2017-Aug-13 04:00N 38°42' W 009°06'0 0.0
2017-Aug-13 03:31N 38°42' W 009°06'0 0.0
2017-Aug-13 03:00N 38°42' W 009°06'0 0.0
2017-Aug-13 02:31N 38°42' W 009°06'0 0.1
2017-Aug-13 02:00N 38°42' W 009°06'0 0.3
2017-Aug-13 01:31N 38°42' W 009°06'0 0.1
2017-Aug-13 01:00N 38°42' W 009°07'0 0.0
2017-Aug-13 00:30N 38°42' W 009°07'0 0.0
2017-Aug-13 00:00N 38°42' W 009°07'0 0.0
2017-Aug-12 23:31N 38°42' W 009°07'0 0.1
2017-Aug-12 23:01N 38°42' W 009°07'0 0.0
2017-Aug-12 22:30N 38°42' W 009°07'0 0.0
2017-Aug-12 22:00N 38°42' W 009°07'0 0.0
2017-Aug-12 21:30N 38°42' W 009°07'0 0.0
2017-Aug-12 21:01N 38°42' W 009°07'0 0.1
2017-Aug-12 20:31N 38°42' W 009°07'0 0.1
2017-Aug-12 20:00N 38°42' W 009°07'0 0.2
2017-Aug-12 19:30N 38°42' W 009°06'0 0.2
2017-Aug-12 19:00N 38°42' W 009°06'0 0.1
2017-Aug-12 18:30N 38°42' W 009°06'0 0.2
2017-Aug-12 18:01N 38°42' W 009°06'0 0.1
2017-Aug-12 17:30N 38°42' W 009°06'0 0.1
2017-Aug-12 17:01N 38°42' W 009°06'0 0.0
2017-Aug-12 16:30N 38°42' W 009°06'0 0.1
2017-Aug-12 16:00N 38°42' W 009°06'0 0.0
2017-Aug-12 15:30N 38°42' W 009°06'0 0.0
2017-Aug-12 15:00N 38°42' W 009°06'0 0.0
2017-Aug-12 14:30N 38°42' W 009°06'0 0.1
2017-Aug-12 14:01N 38°42' W 009°06'0 0.1
2017-Aug-12 13:30N 38°42' W 009°06'0 0.1
2017-Aug-12 13:00N 38°42' W 009°06'0 0.3
2017-Aug-12 12:30N 38°42' W 009°06'0 0.1
2017-Aug-12 12:01N 38°42' W 009°07'0 0.1
2017-Aug-12 11:30N 38°42' W 009°07'0 0.0
2017-Aug-12 11:00N 38°42' W 009°07'0 0.0
2017-Aug-12 10:30N 38°42' W 009°07'0 0.0
2017-Aug-12 10:01N 38°42' W 009°07'0 0.1
2017-Aug-12 09:30N 38°42' W 009°07'0 0.0
2017-Aug-12 09:00N 38°42' W 009°07'0 0.1
2017-Aug-12 08:30N 38°42' W 009°07'0 0.0
2017-Aug-12 08:01N 38°42' W 009°07'0 0.1
2017-Aug-12 07:31N 38°42' W 009°07'1 1.3
2017-Aug-12 07:00N 38°42' W 009°07'3 6.4
2017-Aug-12 06:31N 38°41' W 009°11'611.5
2017-Aug-12 06:00N 38°40' W 009°19'5 9.4
2017-Aug-12 05:31N 38°38' W 009°24'2 3.0
2017-Aug-12 05:00N 38°39' W 009°24'1 1.9
2017-Aug-12 04:30N 38°38' W 009°24'4 7.2
2017-Aug-12 04:00N 38°35' W 009°25'611.9
2017-Aug-12 03:31N 38°29' W 009°28'611.6
2017-Aug-12 03:00N 38°24' W 009°31'611.8
2017-Aug-12 02:31N 38°18' W 009°33'611.8
2017-Aug-12 02:00N 38°13' W 009°35'611.6
2017-Aug-12 01:30N 38°07' W 009°37'611.7
2017-Aug-12 01:00N 38°01' W 009°39'611.5
2017-Aug-12 00:31N 37°56' W 009°41'611.6
2017-Aug-12 00:01N 37°50' W 009°43'611.4
2017-Aug-11 23:31N 37°45' W 009°46'611.1
2017-Aug-11 23:01N 37°40' W 009°48'510.8
2017-Aug-11 22:30N 37°34' W 009°49'510.7
2017-Aug-11 22:01N 37°29' W 009°51'611.1
2017-Aug-11 21:30N 37°24' W 009°53'611.1
2017-Aug-11 21:00N 37°18' W 009°54'611.3
2017-Aug-11 20:31N 37°13' W 009°56'611.5
2017-Aug-11 20:01N 37°08' W 009°58'611.2
2017-Aug-11 19:30N 37°02' W 009°60'611.5
2017-Aug-11 19:01N 36°56' W 010°01'611.5
2017-Aug-11 18:30N 36°51' W 010°03'611.2
2017-Aug-11 18:01N 36°45' W 010°05'611.5
2017-Aug-11 17:30N 36°40' W 010°07'611.3
2017-Aug-11 17:01N 36°34' W 010°08'611.4
2017-Aug-11 16:31N 36°29' W 010°10'611.4
2017-Aug-11 16:00N 36°23' W 010°12'611.1
2017-Aug-11 15:30N 36°18' W 010°14'5310.8
2017-Aug-11 10:35N 35°27' W 010°32'210.7
2017-Aug-11 10:22N 35°25' W 010°33'510.7
2017-Aug-11 09:54N 35°20' W 010°34'1410.6
2017-Aug-11 08:36N 35°07' W 010°39'110.3
2017-Aug-11 08:28N 35°05' W 010°39'510.4
2017-Aug-11 08:00N 35°01' W 010°41'610.3
2017-Aug-11 07:28N 34°55' W 010°42'510.1
2017-Aug-11 07:00N 34°51' W 010°44'510.2
2017-Aug-11 06:28N 34°46' W 010°46'610.1
2017-Aug-11 05:52N 34°40' W 010°48'510.3
2017-Aug-11 05:25N 34°36' W 010°51'410.3
2017-Aug-11 05:01N 34°32' W 010°52'510.0
2017-Aug-11 04:31N 34°27' W 010°54'510.3
2017-Aug-11 04:01N 34°22' W 010°57'510.1
2017-Aug-11 03:31N 34°17' W 010°59'510.4
2017-Aug-11 03:00N 34°12' W 011°01'510.5
2017-Aug-11 02:30N 34°08' W 011°03'510.4
2017-Aug-11 01:59N 34°02' W 011°05'1810.2
2017-Aug-11 00:10N 33°45' W 011°12'2 9.9
2017-Aug-10 23:56N 33°43' W 011°13'5 9.6
2017-Aug-10 23:24N 33°38' W 011°15'12 9.5
2017-Aug-10 22:07N 33°27' W 011°23'1 9.8
2017-Aug-10 22:00N 33°26' W 011°24'7 9.3
2017-Aug-10 21:14N 33°20' W 011°28'2 9.0
2017-Aug-10 21:00N 33°19' W 011°30'7 9.2
2017-Aug-10 20:13N 33°13' W 011°35'2 9.3
2017-Aug-10 20:01N 33°12' W 011°37'4 8.8
2017-Aug-10 19:31N 33°08' W 011°40'5 9.0
2017-Aug-10 19:00N 33°04' W 011°43'15 9.5
2017-Aug-10 17:26N 32°50' W 011°48'5 9.6
2017-Aug-10 16:53N 32°45' W 011°50'4 9.6
2017-Aug-10 16:30N 32°42' W 011°51'  
Track history (hours):
 
Tides and Currents Weather Stations Pressure Air Temp Water Temp Dewpoint Dewpoint Depression Visibility Wind Speed Wind Dir Waves Ship Positions

Maple Opal

Last reported at 2017-Aug-20 16:08 UTC. Time now 2017-Sep-23 16:40 UTC.
Position N 27°10' W 015°24'.
Warning: this ship's position is 34 days out of date.

Length 190 m; draft 9.6 m.

Type: Cargo ship. MMSI: 477213600.

Date/timePositionNaut miles runAvg speedWind from/ knotsBaromVisibWave heightAir tempDewpointWater temp
2017-Aug-20 16:08N 27°10' W 015°24'212.7
2017-Aug-20 15:59N 27°12' W 015°23'1412.5
2017-Aug-20 14:53N 27°25' W 015°18'712.3
2017-Aug-20 14:18N 27°31' W 015°15'412.1
2017-Aug-20 14:00N 27°35' W 015°13'711.5
2017-Aug-20 13:24N 27°41' W 015°11'511.7
2017-Aug-20 12:59N 27°46' W 015°09'612.1
2017-Aug-20 12:29N 27°52' W 015°07'611.8
2017-Aug-20 12:00N 27°57' W 015°05'611.6
2017-Aug-20 11:30N 28°03' W 015°03'611.6
2017-Aug-20 11:00N 28°08' W 015°00'611.4
2017-Aug-20 10:30N 28°13' W 014°58'611.6
2017-Aug-20 10:00N 28°19' W 014°56'611.5
2017-Aug-20 09:30N 28°24' W 014°53'612.2
2017-Aug-20 09:00N 28°29' W 014°49'612.1
2017-Aug-20 08:30N 28°35' W 014°46'612.1
2017-Aug-20 08:00N 28°40' W 014°43'712.2
2017-Aug-20 07:26N 28°46' W 014°40'512.2
2017-Aug-20 07:00N 28°51' W 014°37'612.3
2017-Aug-20 06:30N 28°56' W 014°33'612.2
2017-Aug-20 06:00N 29°01' W 014°30'612.2
2017-Aug-20 05:30N 29°07' W 014°27'612.1
2017-Aug-20 05:00N 29°12' W 014°24'612.2
2017-Aug-20 04:30N 29°18' W 014°21'612.2
2017-Aug-20 04:00N 29°23' W 014°17'612.1
2017-Aug-20 03:30N 29°28' W 014°14'612.1
2017-Aug-20 03:00N 29°34' W 014°11'612.1
2017-Aug-20 02:30N 29°39' W 014°07'712.2
2017-Aug-20 01:58N 29°45' W 014°04'612.3
2017-Aug-20 01:30N 29°50' W 014°01'612.4
2017-Aug-20 01:00N 29°56' W 013°58'612.3
2017-Aug-20 00:30N 30°01' W 013°55'712.0
2017-Aug-19 23:54N 30°08' W 013°51'511.8
2017-Aug-19 23:30N 30°12' W 013°49'611.7
2017-Aug-19 23:00N 30°17' W 013°46'611.7
2017-Aug-19 22:30N 30°23' W 013°44'1011.9
2017-Aug-19 21:42N 30°31' W 013°39'512.1
2017-Aug-19 21:17N 30°36' W 013°37'412.0
2017-Aug-19 20:59N 30°40' W 013°35'612.0
2017-Aug-19 20:30N 30°45' W 013°33'712.0
2017-Aug-19 19:56N 30°51' W 013°29'512.0
2017-Aug-19 19:29N 30°56' W 013°27'611.8
2017-Aug-19 19:00N 31°01' W 013°24'812.0
2017-Aug-19 18:20N 31°09' W 013°21'912.1
2017-Aug-19 17:36N 31°17' W 013°16'112.0
2017-Aug-19 17:30N 31°18' W 013°16'612.1
2017-Aug-19 17:00N 31°23' W 013°13'612.2
2017-Aug-19 16:30N 31°29' W 013°10'612.1
2017-Aug-19 16:00N 31°34' W 013°07'611.8
2017-Aug-19 15:30N 31°40' W 013°04'611.7
2017-Aug-19 15:00N 31°45' W 013°02'1111.5
2017-Aug-19 14:00N 31°56' W 012°57'611.7
2017-Aug-19 13:28N 32°01' W 012°54'611.7
2017-Aug-19 12:59N 32°07' W 012°51'711.3
2017-Aug-19 12:23N 32°13' W 012°48'811.1
2017-Aug-19 11:42N 32°20' W 012°44'2411.5
2017-Aug-19 09:34N 32°42' W 012°33'111.4
2017-Aug-19 09:30N 32°43' W 012°32'611.4
2017-Aug-19 09:00N 32°48' W 012°29'611.5
2017-Aug-19 08:30N 32°53' W 012°27'3011.6
2017-Aug-19 05:57N 33°21' W 012°12'1611.8
2017-Aug-19 04:35N 33°35' W 012°05'211.7
2017-Aug-19 04:22N 33°37' W 012°04'2011.8
2017-Aug-19 02:40N 33°56' W 011°54'3711.9
2017-Aug-18 23:35N 34°30' W 011°37'111.8
2017-Aug-18 23:30N 34°31' W 011°36'612.0
2017-Aug-18 22:59N 34°36' W 011°33'612.1
2017-Aug-18 22:30N 34°42' W 011°30'612.0
2017-Aug-18 22:00N 34°47' W 011°27'612.0
2017-Aug-18 21:29N 34°53' W 011°24'611.9
2017-Aug-18 21:00N 34°58' W 011°22'611.9
2017-Aug-18 20:30N 35°04' W 011°19'3211.9
2017-Aug-18 17:47N 35°33' W 011°02'312.0
2017-Aug-18 17:30N 35°36' W 011°01'812.0
2017-Aug-18 16:52N 35°43' W 010°57'412.0
2017-Aug-18 16:30N 35°47' W 010°55'9811.9
2017-Aug-18 08:16N 37°17' W 010°07'312.0
2017-Aug-18 08:00N 37°20' W 010°05'612.0
2017-Aug-18 07:29N 37°25' W 010°02'611.8
2017-Aug-18 06:59N 37°31' W 009°59'612.0
2017-Aug-18 06:30N 37°36' W 009°56'611.8
2017-Aug-18 05:57N 37°42' W 009°53'511.7
2017-Aug-18 05:30N 37°47' W 009°51'612.1
2017-Aug-18 05:00N 37°52' W 009°47'612.2
2017-Aug-18 04:30N 37°58' W 009°44'612.2
2017-Aug-18 04:00N 38°04' W 009°42'612.1
2017-Aug-18 03:30N 38°09' W 009°38'612.2
2017-Aug-18 03:00N 38°15' W 009°35'612.1
2017-Aug-18 02:30N 38°20' W 009°32'611.6
2017-Aug-18 02:00N 38°26' W 009°29'611.3
2017-Aug-18 01:30N 38°31' W 009°27'510.4
2017-Aug-18 01:00N 38°36' W 009°24'5 9.1
2017-Aug-18 00:30N 38°39' W 009°20'510.2
2017-Aug-18 00:00N 38°41' W 009°14'510.1
2017-Aug-17 23:30N 38°42' W 009°08'1 2.3
2017-Aug-17 23:00N 38°42' W 009°06'0 0.1
2017-Aug-17 22:30N 38°42' W 009°06'0 0.0
2017-Aug-17 21:57N 38°42' W 009°06'0 0.0
2017-Aug-17 21:24N 38°42' W 009°06'0 0.0
2017-Aug-17 21:00N 38°42' W 009°06'0 0.1
2017-Aug-17 20:27N 38°42' W 009°06'0 0.0
2017-Aug-17 20:00N 38°42' W 009°06'0 0.1
2017-Aug-17 19:30N 38°42' W 009°06'0 0.1
2017-Aug-17 18:57N 38°42' W 009°06'0 0.1
2017-Aug-17 18:27N 38°42' W 009°06'0 0.1
2017-Aug-17 17:54N 38°42' W 009°06'0 0.1
2017-Aug-17 17:27N 38°42' W 009°06'0 0.2
2017-Aug-17 17:00N 38°42' W 009°07'0 0.1
2017-Aug-17 16:24N 38°42' W 009°07'0 0.1
2017-Aug-17 15:54N 38°42' W 009°07'0 0.0
2017-Aug-17 15:31N 38°42' W 009°07'0 0.0
2017-Aug-17 15:01N 38°42' W 009°07'0 0.0
2017-Aug-17 14:31N 38°42' W 009°07'0 0.0
2017-Aug-17 14:00N 38°42' W 009°07'0 0.0
2017-Aug-17 13:30N 38°42' W 009°07'0 0.0
2017-Aug-17 13:00N 38°42' W 009°07'0 0.1
2017-Aug-17 12:30N 38°42' W 009°07'0 0.2
2017-Aug-17 12:01N 38°42' W 009°06'0 0.3
2017-Aug-17 11:30N 38°42' W 009°06'0 0.1
2017-Aug-17 11:01N 38°42' W 009°06'0 0.0
2017-Aug-17 10:30N 38°42' W 009°06'0 0.0
2017-Aug-17 10:00N 38°42' W 009°06'0 0.0
2017-Aug-17 09:30N 38°42' W 009°06'0 0.0
2017-Aug-17 09:01N 38°42' W 009°06'0 0.0
2017-Aug-17 08:30N 38°42' W 009°06'0 0.1
2017-Aug-17 08:01N 38°42' W 009°06'0 0.1
2017-Aug-17 07:30N 38°42' W 009°06'0 0.0
2017-Aug-17 07:00N 38°42' W 009°06'0 0.2
2017-Aug-17 06:30N 38°42' W 009°06'0 0.2
2017-Aug-17 06:00N 38°42' W 009°06'0 0.2
2017-Aug-17 05:30N 38°42' W 009°07'0 0.1
2017-Aug-17 05:01N 38°42' W 009°07'0 0.0
2017-Aug-17 04:30N 38°42' W 009°07'0 0.0
2017-Aug-17 04:00N 38°42' W 009°07'0 0.0
2017-Aug-17 03:30N 38°42' W 009°07'0 0.1
2017-Aug-17 03:00N 38°42' W 009°07'0 0.0
2017-Aug-17 02:30N 38°42' W 009°07'0 0.0
2017-Aug-17 02:00N 38°42' W 009°07'0 0.0
2017-Aug-17 01:31N 38°42' W 009°07'0 0.0
2017-Aug-17 01:00N 38°42' W 009°07'0 0.0
2017-Aug-17 00:31N 38°42' W 009°07'0 0.1
2017-Aug-17 00:01N 38°42' W 009°07'0 0.0
2017-Aug-16 23:31N 38°42' W 009°06'0 0.2
2017-Aug-16 23:00N 38°42' W 009°06'0 0.0
2017-Aug-16 22:31N 38°42' W 009°06'0 0.2
2017-Aug-16 22:00N 38°42' W 009°06'0 0.1
2017-Aug-16 21:31N 38°42' W 009°06'0 0.0
2017-Aug-16 21:01N 38°42' W 009°06'0 0.0
2017-Aug-16 20:31N 38°42' W 009°06'0 0.0
2017-Aug-16 20:00N 38°42' W 009°06'0 0.0
2017-Aug-16 19:31N 38°42' W 009°06'0 0.0
2017-Aug-16 19:01N 38°42' W 009°06'0 0.0
2017-Aug-16 18:30N 38°42' W 009°06'0 0.1
2017-Aug-16 18:00N 38°42' W 009°06'0 0.1
2017-Aug-16 17:30N 38°42' W 009°06'0 0.2
2017-Aug-16 17:00N 38°42' W 009°06'0 0.1
2017-Aug-16 16:31N 38°42' W 009°06'0 0.0
2017-Aug-16 16:01N 38°42' W 009°06'0 0.1
2017-Aug-16 15:31N 38°42' W 009°07'0 0.0
2017-Aug-16 15:01N 38°42' W 009°07'0 0.1
2017-Aug-16 14:31N 38°42' W 009°07'0 0.0
2017-Aug-16 14:01N 38°42' W 009°07'0 0.0
2017-Aug-16 13:31N 38°42' W 009°07'0 0.0
2017-Aug-16 13:00N 38°42' W 009°07'0 0.1
2017-Aug-16 12:30N 38°42' W 009°07'0 0.0
2017-Aug-16 12:00N 38°42' W 009°07'0 0.1
2017-Aug-16 11:30N 38°42' W 009°07'0 0.1
2017-Aug-16 11:00N 38°42' W 009°06'0 0.2
2017-Aug-16 10:30N 38°42' W 009°06'0 0.1
2017-Aug-16 10:00N 38°42' W 009°06'0 0.2
2017-Aug-16 09:30N 38°42' W 009°06'0 0.1
2017-Aug-16 09:01N 38°42' W 009°06'0 0.1
2017-Aug-16 08:31N 38°42' W 009°06'0 0.1
2017-Aug-16 08:01N 38°42' W 009°06'0 0.1
2017-Aug-16 07:30N 38°42' W 009°06'0 0.0
2017-Aug-16 07:00N 38°42' W 009°06'0 0.1
2017-Aug-16 06:31N 38°42' W 009°06'0 0.0
2017-Aug-16 06:00N 38°42' W 009°06'0 0.0
2017-Aug-16 05:31N 38°42' W 009°06'0 0.1
2017-Aug-16 05:00N 38°42' W 009°06'0 0.2
2017-Aug-16 04:30N 38°42' W 009°06'0 0.2
2017-Aug-16 04:00N 38°42' W 009°06'0 0.0
2017-Aug-16 03:31N 38°42' W 009°06'0 0.0
2017-Aug-16 03:00N 38°42' W 009°06'0 0.0
2017-Aug-16 02:30N 38°42' W 009°06'0 0.1
2017-Aug-16 02:00N 38°42' W 009°07'0 0.0
2017-Aug-16 01:30N 38°42' W 009°07'0 0.0
2017-Aug-16 01:01N 38°42' W 009°07'0 0.0
2017-Aug-16 00:31N 38°42' W 009°07'0 0.0
2017-Aug-16 00:00N 38°42' W 009°07'0 0.0
2017-Aug-15 23:30N 38°42' W 009°07'0 0.0
2017-Aug-15 23:00N 38°42' W 009°07'0 0.1
2017-Aug-15 22:30N 38°42' W 009°06'0 0.1
2017-Aug-15 22:00N 38°42' W 009°06'0 0.1
2017-Aug-15 21:31N 38°42' W 009°06'0 0.1
2017-Aug-15 20:59N 38°42' W 009°06'0 0.1
2017-Aug-15 20:31N 38°42' W 009°06'0 0.1
2017-Aug-15 20:00N 38°42' W 009°06'0 0.0
2017-Aug-15 19:31N 38°42' W 009°06'0 0.0
2017-Aug-15 19:00N 38°42' W 009°06'0 0.0
2017-Aug-15 18:30N 38°42' W 009°06'0 0.0
2017-Aug-15 18:00N 38°42' W 009°06'0 0.0
2017-Aug-15 17:31N 38°42' W 009°06'0 0.0
2017-Aug-15 17:01N 38°42' W 009°06'0 0.0
2017-Aug-15 16:31N 38°42' W 009°06'0 0.1
2017-Aug-15 16:01N 38°42' W 009°06'0 0.2
2017-Aug-15 15:30N 38°42' W 009°06'0 0.0
2017-Aug-15 15:00N 38°42' W 009°06'0 0.0
2017-Aug-15 14:31N 38°42' W 009°06'0 0.1
2017-Aug-15 14:01N 38°42' W 009°07'0 0.0
2017-Aug-15 13:31N 38°42' W 009°07'0 0.0
2017-Aug-15 13:01N 38°42' W 009°07'0 0.0
2017-Aug-15 12:30N 38°42' W 009°07'0 0.0
2017-Aug-15 12:01N 38°42' W 009°07'0 0.0
2017-Aug-15 11:30N 38°42' W 009°07'0 0.0
2017-Aug-15 11:01N 38°42' W 009°07'0 0.0
2017-Aug-15 10:31N 38°42' W 009°07'0 0.0
2017-Aug-15 10:01N 38°42' W 009°07'0 0.1
2017-Aug-15 09:30N 38°42' W 009°07'0 0.2
2017-Aug-15 09:01N 38°42' W 009°06'0 0.2
2017-Aug-15 08:30N 38°42' W 009°06'0 0.0
2017-Aug-15 08:01N 38°42' W 009°06'0 0.0
2017-Aug-15 07:30N 38°42' W 009°06'0 0.0
2017-Aug-15 07:01N 38°42' W 009°06'0 0.0
2017-Aug-15 06:30N 38°42' W 009°06'0 0.0
2017-Aug-15 06:00N 38°42' W 009°06'0 0.0
2017-Aug-15 05:30N 38°42' W 009°06'0 0.0
2017-Aug-15 05:01N 38°42' W 009°06'0 0.0
2017-Aug-15 04:31N 38°42' W 009°06'0 0.0
2017-Aug-15 04:00N 38°42' W 009°06'0 0.2
2017-Aug-15 03:30N 38°42' W 009°06'0 0.2
2017-Aug-15 03:01N 38°42' W 009°06'0 0.0
2017-Aug-15 02:30N 38°42' W 009°06'0 0.1
2017-Aug-15 02:01N 38°42' W 009°07'0 0.0
2017-Aug-15 01:30N 38°42' W 009°07'0 0.0
2017-Aug-15 01:00N 38°42' W 009°07'0 0.0
2017-Aug-15 00:30N 38°42' W 009°07'0 0.0
2017-Aug-15 00:00N 38°42' W 009°07'0 0.0
2017-Aug-14 23:30N 38°42' W 009°07'0 0.0
2017-Aug-14 23:01N 38°42' W 009°07'0 0.0
2017-Aug-14 22:30N 38°42' W 009°07'0 0.0
2017-Aug-14 22:01N 38°42' W 009°07'0 0.1
2017-Aug-14 21:31N 38°42' W 009°06'0 0.1
2017-Aug-14 21:01N 38°42' W 009°06'0 0.1
2017-Aug-14 20:31N 38°42' W 009°06'0 0.2
2017-Aug-14 20:00N 38°42' W 009°06'0 0.1
2017-Aug-14 19:30N 38°42' W 009°06'0 0.0
2017-Aug-14 19:00N 38°42' W 009°06'0 0.1
2017-Aug-14 18:30N 38°42' W 009°06'0 0.0
2017-Aug-14 18:00N 38°42' W 009°06'0 0.1
2017-Aug-14 17:31N 38°42' W 009°06'0 0.1
2017-Aug-14 17:01N 38°42' W 009°06'0 0.1
2017-Aug-14 16:30N 38°42' W 009°06'0 0.1
2017-Aug-14 16:01N 38°42' W 009°06'0 0.1
2017-Aug-14 15:30N 38°42' W 009°06'0 0.4
2017-Aug-14 15:01N 38°42' W 009°06'0 0.1
2017-Aug-14 14:31N 38°42' W 009°07'0 0.0
2017-Aug-14 14:00N 38°42' W 009°07'0 0.0
2017-Aug-14 13:30N 38°42' W 009°07'0 0.0
2017-Aug-14 13:00N 38°42' W 009°07'0 0.0
2017-Aug-14 12:30N 38°42' W 009°07'0 0.0
2017-Aug-14 12:01N 38°42' W 009°07'0 0.0
2017-Aug-14 11:31N 38°42' W 009°07'0 0.0
2017-Aug-14 11:00N 38°42' W 009°07'0 0.0
2017-Aug-14 10:31N 38°42' W 009°07'0 0.0
2017-Aug-14 10:01N 38°42' W 009°07'0 0.0
2017-Aug-14 09:31N 38°42' W 009°07'0 0.0
2017-Aug-14 09:00N 38°42' W 009°07'0 0.3
2017-Aug-14 08:31N 38°42' W 009°06'0 0.2
2017-Aug-14 08:00N 38°42' W 009°06'0 0.0
2017-Aug-14 07:31N 38°42' W 009°06'0 0.1
2017-Aug-14 07:01N 38°42' W 009°06'0 0.0
2017-Aug-14 06:31N 38°42' W 009°06'0 0.0
2017-Aug-14 06:01N 38°42' W 009°06'0 0.0
2017-Aug-14 05:30N 38°42' W 009°06'0 0.0
2017-Aug-14 05:00N 38°42' W 009°06'0 0.0
2017-Aug-14 04:30N 38°42' W 009°06'0 0.0
2017-Aug-14 04:00N 38°42' W 009°06'0 0.0
2017-Aug-14 03:31N 38°42' W 009°06'0 0.1
2017-Aug-14 03:00N 38°42' W 009°06'0 0.2
2017-Aug-14 02:30N 38°42' W 009°06'0 0.2
2017-Aug-14 02:00N 38°42' W 009°06'0 0.1
2017-Aug-14 01:30N 38°42' W 009°07'0 0.0
2017-Aug-14 01:00N 38°42' W 009°07'0 0.1
2017-Aug-14 00:30N 38°42' W 009°07'0 0.0
2017-Aug-14 00:00N 38°42' W 009°07'0 0.0
2017-Aug-13 23:31N 38°42' W 009°07'0 0.0
2017-Aug-13 23:01N 38°42' W 009°07'0 0.0
2017-Aug-13 22:31N 38°42' W 009°07'0 0.0
2017-Aug-13 22:00N 38°42' W 009°07'0 0.0
2017-Aug-13 21:30N 38°42' W 009°07'0 0.0
2017-Aug-13 21:00N 38°42' W 009°07'0 0.0
2017-Aug-13 20:31N 38°42' W 009°07'0 0.2
2017-Aug-13 20:01N 38°42' W 009°07'0 0.4
2017-Aug-13 19:30N 38°42' W 009°06'0 0.2
2017-Aug-13 19:00N 38°42' W 009°06'0 0.0
2017-Aug-13 18:30N 38°42' W 009°06'0 0.0
2017-Aug-13 18:00N 38°42' W 009°06'0 0.0
2017-Aug-13 17:30N 38°42' W 009°06'0 0.0
2017-Aug-13 17:00N 38°42' W 009°06'0 0.0
2017-Aug-13 16:30N 38°42' W 009°06'0 0.0
2017-Aug-13 16:00N 38°42' W 009°06'0 0.0
2017-Aug-13 15:30N 38°42' W 009°06'0 0.0
2017-Aug-13 15:01N 38°42' W 009°06'0 0.0
2017-Aug-13 14:30N 38°42' W 009°06'0 0.1
2017-Aug-13 14:01N 38°42' W 009°06'0 0.2
2017-Aug-13 13:31N 38°42' W 009°06'0 0.2
2017-Aug-13 13:00N 38°42' W 009°06'0 0.1
2017-Aug-13 12:30N 38°42' W 009°07'0 0.1
2017-Aug-13 12:00N 38°42' W 009°07'0 0.0
2017-Aug-13 11:31N 38°42' W 009°07'0 0.0
2017-Aug-13 11:00N 38°42' W 009°07'0 0.0
2017-Aug-13 10:30N 38°42' W 009°07'0 0.0
2017-Aug-13 10:00N 38°42' W 009°07'0 0.0
2017-Aug-13 09:30N 38°42' W 009°07'0 0.0
2017-Aug-13 09:00N 38°42' W 009°07'0 0.0
2017-Aug-13 08:30N 38°42' W 009°07'0 0.1
2017-Aug-13 08:00N 38°42' W 009°07'0 0.4
2017-Aug-13 07:31N 38°42' W 009°06'0 0.2
2017-Aug-13 07:01N 38°42' W 009°06'0 0.1
2017-Aug-13 06:31N 38°42' W 009°06'0 0.0
2017-Aug-13 06:00N 38°42' W 009°06'0 0.0
2017-Aug-13 05:30N 38°42' W 009°06'0 0.0
2017-Aug-13 05:00N 38°42' W 009°06'0 0.0
2017-Aug-13 04:31N 38°42' W 009°06'0 0.0
2017-Aug-13 04:00N 38°42' W 009°06'0 0.0
2017-Aug-13 03:31N 38°42' W 009°06'0 0.0
2017-Aug-13 03:00N 38°42' W 009°06'0 0.0
2017-Aug-13 02:31N 38°42' W 009°06'0 0.1
2017-Aug-13 02:00N 38°42' W 009°06'0 0.3
2017-Aug-13 01:31N 38°42' W 009°06'0 0.1
2017-Aug-13 01:00N 38°42' W 009°07'0 0.0
2017-Aug-13 00:30N 38°42' W 009°07'0 0.0
2017-Aug-13 00:00N 38°42' W 009°07'0 0.0
2017-Aug-12 23:31N 38°42' W 009°07'0 0.1
2017-Aug-12 23:01N 38°42' W 009°07'0 0.0
2017-Aug-12 22:30N 38°42' W 009°07'0 0.0
2017-Aug-12 22:00N 38°42' W 009°07'0 0.0
2017-Aug-12 21:30N 38°42' W 009°07'0 0.0
2017-Aug-12 21:01N 38°42' W 009°07'0 0.1
2017-Aug-12 20:31N 38°42' W 009°07'0 0.1
2017-Aug-12 20:00N 38°42' W 009°07'0 0.2
2017-Aug-12 19:30N 38°42' W 009°06'0 0.2
2017-Aug-12 19:00N 38°42' W 009°06'0 0.1
2017-Aug-12 18:30N 38°42' W 009°06'0 0.2
2017-Aug-12 18:01N 38°42' W 009°06'0 0.1
2017-Aug-12 17:30N 38°42' W 009°06'0 0.1
2017-Aug-12 17:01N 38°42' W 009°06'0 0.0
2017-Aug-12 16:30N 38°42' W 009°06'0 0.1
2017-Aug-12 16:00N 38°42' W 009°06'0 0.0
2017-Aug-12 15:30N 38°42' W 009°06'0 0.0
2017-Aug-12 15:00N 38°42' W 009°06'0 0.0
2017-Aug-12 14:30N 38°42' W 009°06'0 0.1
2017-Aug-12 14:01N 38°42' W 009°06'0 0.1
2017-Aug-12 13:30N 38°42' W 009°06'0 0.1
2017-Aug-12 13:00N 38°42' W 009°06'0 0.3
2017-Aug-12 12:30N 38°42' W 009°06'0 0.1
2017-Aug-12 12:01N 38°42' W 009°07'0 0.1
2017-Aug-12 11:30N 38°42' W 009°07'0 0.0
2017-Aug-12 11:00N 38°42' W 009°07'0 0.0
2017-Aug-12 10:30N 38°42' W 009°07'0 0.0
2017-Aug-12 10:01N 38°42' W 009°07'0 0.1
2017-Aug-12 09:30N 38°42' W 009°07'0 0.0
2017-Aug-12 09:00N 38°42' W 009°07'0 0.1
2017-Aug-12 08:30N 38°42' W 009°07'0 0.0
2017-Aug-12 08:01N 38°42' W 009°07'0 0.1
2017-Aug-12 07:31N 38°42' W 009°07'1 1.3
2017-Aug-12 07:00N 38°42' W 009°07'3 6.4
2017-Aug-12 06:31N 38°41' W 009°11'611.5
2017-Aug-12 06:00N 38°40' W 009°19'5 9.4
2017-Aug-12 05:31N 38°38' W 009°24'2 3.0
2017-Aug-12 05:00N 38°39' W 009°24'1 1.9
2017-Aug-12 04:30N 38°38' W 009°24'4 7.2
2017-Aug-12 04:00N 38°35' W 009°25'611.9
2017-Aug-12 03:31N 38°29' W 009°28'611.6
2017-Aug-12 03:00N 38°24' W 009°31'611.8
2017-Aug-12 02:31N 38°18' W 009°33'611.8
2017-Aug-12 02:00N 38°13' W 009°35'611.6
2017-Aug-12 01:30N 38°07' W 009°37'611.7
2017-Aug-12 01:00N 38°01' W 009°39'611.5
2017-Aug-12 00:31N 37°56' W 009°41'611.6
2017-Aug-12 00:01N 37°50' W 009°43'611.4
2017-Aug-11 23:31N 37°45' W 009°46'611.1
2017-Aug-11 23:01N 37°40' W 009°48'510.8
2017-Aug-11 22:30N 37°34' W 009°49'510.7
2017-Aug-11 22:01N 37°29' W 009°51'611.1
2017-Aug-11 21:30N 37°24' W 009°53'611.1
2017-Aug-11 21:00N 37°18' W 009°54'611.3
2017-Aug-11 20:31N 37°13' W 009°56'611.5
2017-Aug-11 20:01N 37°08' W 009°58'611.2
2017-Aug-11 19:30N 37°02' W 009°60'611.5
2017-Aug-11 19:01N 36°56' W 010°01'611.5
2017-Aug-11 18:30N 36°51' W 010°03'611.2
2017-Aug-11 18:01N 36°45' W 010°05'611.5
2017-Aug-11 17:30N 36°40' W 010°07'611.3
2017-Aug-11 17:01N 36°34' W 010°08'611.4
2017-Aug-11 16:31N 36°29' W 010°10'611.4
2017-Aug-11 16:00N 36°23' W 010°12'611.1
2017-Aug-11 15:30N 36°18' W 010°14'5310.8
2017-Aug-11 10:35N 35°27' W 010°32'210.7
2017-Aug-11 10:22N 35°25' W 010°33'510.7
2017-Aug-11 09:54N 35°20' W 010°34'1410.6
2017-Aug-11 08:36N 35°07' W 010°39'110.3
2017-Aug-11 08:28N 35°05' W 010°39'510.4
2017-Aug-11 08:00N 35°01' W 010°41'610.3
2017-Aug-11 07:28N 34°55' W 010°42'510.1
2017-Aug-11 07:00N 34°51' W 010°44'510.2
2017-Aug-11 06:28N 34°46' W 010°46'610.1
2017-Aug-11 05:52N 34°40' W 010°48'510.3
2017-Aug-11 05:25N 34°36' W 010°51'410.3
2017-Aug-11 05:01N 34°32' W 010°52'510.0
2017-Aug-11 04:31N 34°27' W 010°54'510.3
2017-Aug-11 04:01N 34°22' W 010°57'510.1
2017-Aug-11 03:31N 34°17' W 010°59'510.4
2017-Aug-11 03:00N 34°12' W 011°01'510.5
2017-Aug-11 02:30N 34°08' W 011°03'510.4
2017-Aug-11 01:59N 34°02' W 011°05'1810.2
2017-Aug-11 00:10N 33°45' W 011°12'2 9.9
2017-Aug-10 23:56N 33°43' W 011°13'5 9.6
2017-Aug-10 23:24N 33°38' W 011°15'12 9.5
2017-Aug-10 22:07N 33°27' W 011°23'1 9.8
2017-Aug-10 22:00N 33°26' W 011°24'7 9.3
2017-Aug-10 21:14N 33°20' W 011°28'2 9.0
2017-Aug-10 21:00N 33°19' W 011°30'7 9.2
2017-Aug-10 20:13N 33°13' W 011°35'2 9.3
2017-Aug-10 20:01N 33°12' W 011°37'4 8.8
2017-Aug-10 19:31N 33°08' W 011°40'5 9.0
2017-Aug-10 19:00N 33°04' W 011°43'15 9.5
2017-Aug-10 17:26N 32°50' W 011°48'5 9.6
2017-Aug-10 16:53N 32°45' W 011°50'4 9.6
2017-Aug-10 16:30N 32°42' W 011°51'  

Dump ship's entire track history